Fort Stockton Pecos County Airport Fort Stockton US
ICAO: KFST
IATA: FST
Category: Medium
Scheduled Services: No

Elevation: 3011 ft
TransAlt. 18000 ft.

Airport Communications:
ASOS:118.525
ALBUQUERQUE CNTR:135.875
SAN ANGELO RDO:116.9
CTAF/UNICOM:122.8

KFST Zoom In..

If you have problems with the map follow the link
https://www.worldairports.se/pages/airport.php?
ICAO=KFST

Runways:

(A) RW 03 length 4400 ft width 60 ft
---- / hdg 28

(B) RW 07 length 4961 ft width 150 ft
---- / hdg 72

(C) RW 11 length 3348 ft width 100 ft
---- / hdg 118

(D) RW 12 length 7508 ft width 100 ft
---- / hdg 118

(E) RW 16 length 3981 ft width 100 ft
---- / hdg 162

(F) RW 21 length 4400 ft width 60 ft
---- / hdg 208

(G) RW 25 length 4961 ft width 150 ft
---- / hdg 252

(H) RW 29 length 3348 ft width 100 ft
---- / hdg 298

(I) RW 30 length 7508 ft width 100 ft
---- / hdg 298

(J) RW 34 length 3981 ft width 100 ft
---- / hdg 342

Location; KFST
Day. 20 / Time. 07.53 Zulu
* Altimeter: 30.47
* Temperature: 04° c. 39.2°f.
* Wind from: 110° Speed 06 kn.
Dewpoint: -02° c.
Visibility: 10 Statute Miles.
Clouds: Few 7000 ft.
Clouds: Scattered 1000 ft.

KFST 200753Z AUTO 11006KT 10SM FEW070 SCT100 04/M02 A3047 RMK AO2 SLP305 T00391017


Wind From 110°
Speed 06 kn.

 
 
jpsmedia worldairports.se 2020   terms of use